Hauptseite
METAR-TAF:

METAR-TAF

Flughäfen :

Flughafen Guangzhou

Guangzhou, China

Breite: 23-10N, Länge: 113-20E, Höhe: 8 m

Beobachtung

Neuester Wetterbericht von vor 42 Minuten, um 02:30 UTC
Wind 4 kt aus Ost/Nordost, variierte zwischen Nord/Nordost und Ost
Temperatur 20°C
Luftfeuchtigkeit 83%
Luftdruck 1018 hPa
Sichtweite 10 km oder mehr
Aufgelockert bewölkt in der Höhe von 1000 ft
Durchbrochene Bewölkung in der Höhe von 2600 ft

METAR: ZGGG 170230Z 07002MPS 020V100 9999 SCT010 BKN026 20/17 Q1018 NOSIG

Zeit: 11:12 (03:12 UTC)

Prognose

Neuester Wetterbericht von vor 6 Stunden und 11 Minuten, um 21:01 UTC
Gültige Prognose vom 17 um 00 UTC bis 17 um 24 UTC
Wind 6 kt aus Nordost
Sichtweite: 6000 m
Aufgelockert bewölkt in der Höhe von 1000 ft
Durchbrochene Bewölkung in der Höhe von 3000 ft
Leichtregen

TAF: ZGGG 162101Z 1700/1724 04003MPS 6000 -RA SCT010 BKN030 TX23/1707Z TN18/1722Z

Wetterbeobachtungen und Prognosen von mehr als 4000 Flughäfen (METAR und TAF Bericht).

Die verfügbaren Stationen werden durch gelbe und rote Markierungen auf der Karte dargestellt.

Führen Sie die Maus auf sie, um den Namen der Station zu sehen.

Darauf klicken, um die Beobachtung von Wetterbeobachtungen und Prognosen zu sehen.

Um die Karte zu ändern : klicken Sie auf den grünen Tasten mit einem schwarzen Kreuz Zum Vergrößern, auf den grünen Button mit einem Gedankenstrich zu verkleinern, oder auf die grünen Pfeile für benachbarte Karten.


METAR-TAF: